Cresthill, Illinois
Current Conditions -  °F | °C
As of 2:15 PM on Friday 31 Oct 2014 (Local Time) from KLOT Reporting Station
Overcast Overcast  
Wind Chill: 29°   Ceiling: 4200
Heat Index: 40°   Visibility: 10mi
Dew Point: 23°   Wind: 26mph
Humidity: 50%   Direction: 10°N
Pressure: 30.17"   Gusts: 37mph
Location:  41.6°N, 88.12°W
Report Text: KLOT 311915Z AUTO 01023G32KT 10SM OVC042 05/M05 A3017 RMK AO2 T00451052
Loading
Personal Weather Stations






























Interactive Weather Map
Tropical Storm Tracking
New forecast layout! Learn more

10-Day Weather Forecast

Advertisements
Track Severe Weather on mobile